Corbin City, New Jersey
Current Conditions -  °F | °C
As of 2:54 PM on Monday 24 Nov 2014 (Local Time) from KMIV Reporting Station
Clear Clear  
Wind Chill: 69°   Ceiling: Unl
Heat Index: 69°   Visibility: 10mi
Dew Point: 56°   Wind: 9mph
Humidity: 63%   Direction: 210°SSW
Pressure: 29.65"   Gusts: 17mph
Location:  39.2589°N, 74.8124°W
Report Text: KMIV 241954Z AUTO 21008G15KT 110V250 10SM CLR 21/13 A2965 RMK AO2 SLP039 T02060133
Loading
Personal Weather Stations






























Interactive Weather Map New forecast layout! Learn more

10-Day Weather Forecast

Advertisements
Track Severe Weather on mobile